sensor_id;sensor_type;location;lat;lon;timestamp;pressure;altitude;pressure_sealevel;temperature
33267;BMP180;19638;49.080;11.896;2022-10-23T00:04:33;96559.00;;;12.60
33267;BMP180;19638;49.080;11.896;2022-10-23T00:08:36;96559.00;;;12.60
33267;BMP180;19638;49.080;11.896;2022-10-23T00:12:39;96560.00;;;12.60
33267;BMP180;19638;49.080;11.896;2022-10-23T00:16:44;96560.00;;;12.60
33267;BMP180;19638;49.080;11.896;2022-10-23T00:20:47;96559.00;;;12.50
33267;BMP180;19638;49.080;11.896;2022-10-23T00:24:50;96564.00;;;12.60
33267;BMP180;19638;49.080;11.896;2022-10-23T00:28:54;96565.00;;;12.50
33267;BMP180;19638;49.080;11.896;2022-10-23T00:33:32;96567.00;;;12.50
33267;BMP180;19638;49.080;11.896;2022-10-23T00:37:35;96567.00;;;12.50
33267;BMP180;19638;49.080;11.896;2022-10-23T00:41:38;96556.00;;;12.50
33267;BMP180;19638;49.080;11.896;2022-10-23T00:46:12;96559.00;;;12.50
33267;BMP180;19638;49.080;11.896;2022-10-23T00:50:17;96557.00;;;12.60
33267;BMP180;19638;49.080;11.896;2022-10-23T00:54:24;96564.00;;;12.50
33267;BMP180;19638;49.080;11.896;2022-10-23T01:03:04;96570.00;;;12.50
33267;BMP180;19638;49.080;11.896;2022-10-23T01:07:12;96565.00;;;12.60
33267;BMP180;19638;49.080;11.896;2022-10-23T01:11:21;96558.00;;;12.60
33267;BMP180;19638;49.080;11.896;2022-10-23T01:15:31;96552.00;;;12.60
33267;BMP180;19638;49.080;11.896;2022-10-23T01:20:06;96549.00;;;12.60
33267;BMP180;19638;49.080;11.896;2022-10-23T01:24:20;96545.00;;;12.60
33267;BMP180;19638;49.080;11.896;2022-10-23T01:28:34;96542.00;;;12.60
33267;BMP180;19638;49.080;11.896;2022-10-23T01:32:43;96548.00;;;12.70
33267;BMP180;19638;49.080;11.896;2022-10-23T01:36:49;96539.00;;;12.80
33267;BMP180;19638;49.080;11.896;2022-10-23T01:40:57;96524.00;;;12.80
33267;BMP180;19638;49.080;11.896;2022-10-23T01:45:07;96529.00;;;12.80
33267;BMP180;19638;49.080;11.896;2022-10-23T01:49:40;96524.00;;;12.80
33267;BMP180;19638;49.080;11.896;2022-10-23T01:53:45;96516.00;;;12.90
33267;BMP180;19638;49.080;11.896;2022-10-23T01:57:50;96527.00;;;12.90
33267;BMP180;19638;49.080;11.896;2022-10-23T02:02:29;96517.00;;;13.00
33267;BMP180;19638;49.080;11.896;2022-10-23T02:06:34;96523.00;;;13.00
33267;BMP180;19638;49.080;11.896;2022-10-23T02:10:44;96526.00;;;13.00
33267;BMP180;19638;49.080;11.896;2022-10-23T02:15:12;96516.00;;;13.00
33267;BMP180;19638;49.080;11.896;2022-10-23T02:19:26;96516.00;;;13.00
33267;BMP180;19638;49.080;11.896;2022-10-23T02:23:33;96510.00;;;13.00
33267;BMP180;19638;49.080;11.896;2022-10-23T02:27:39;96511.00;;;13.00
33267;BMP180;19638;49.080;11.896;2022-10-23T02:31:44;96518.00;;;13.10
33267;BMP180;19638;49.080;11.896;2022-10-23T02:35:49;96503.00;;;13.10
33267;BMP180;19638;49.080;11.896;2022-10-23T02:39:53;96501.00;;;13.10
33267;BMP180;19638;49.080;11.896;2022-10-23T02:48:40;96503.00;;;13.00
33267;BMP180;19638;49.080;11.896;2022-10-23T02:52:51;96502.00;;;13.00
33267;BMP180;19638;49.080;11.896;2022-10-23T02:57:02;96496.00;;;13.00
33267;BMP180;19638;49.080;11.896;2022-10-23T03:01:09;96476.00;;;13.00
33267;BMP180;19638;49.080;11.896;2022-10-23T03:05:15;96469.00;;;13.00
33267;BMP180;19638;49.080;11.896;2022-10-23T03:09:52;96476.00;;;12.90
33267;BMP180;19638;49.080;11.896;2022-10-23T03:13:55;96472.00;;;12.90
33267;BMP180;19638;49.080;11.896;2022-10-23T03:18:32;96484.00;;;13.00
33267;BMP180;19638;49.080;11.896;2022-10-23T03:22:35;96489.00;;;13.00
33267;BMP180;19638;49.080;11.896;2022-10-23T03:31:17;96494.00;;;13.00
33267;BMP180;19638;49.080;11.896;2022-10-23T03:35:20;96498.00;;;13.00
33267;BMP180;19638;49.080;11.896;2022-10-23T03:43:59;96502.00;;;13.00
33267;BMP180;19638;49.080;11.896;2022-10-23T03:52:41;96487.00;;;12.90
33267;BMP180;19638;49.080;11.896;2022-10-23T03:57:15;96483.00;;;12.90
33267;BMP180;19638;49.080;11.896;2022-10-23T04:01:18;96484.00;;;12.90
33267;BMP180;19638;49.080;11.896;2022-10-23T04:05:52;96474.00;;;12.80
33267;BMP180;19638;49.080;11.896;2022-10-23T04:09:57;96469.00;;;12.80
33267;BMP180;19638;49.080;11.896;2022-10-23T04:14:30;96466.00;;;12.80
33267;BMP180;19638;49.080;11.896;2022-10-23T04:18:33;96474.00;;;12.80
33267;BMP180;19638;49.080;11.896;2022-10-23T04:22:36;96473.00;;;12.80
33267;BMP180;19638;49.080;11.896;2022-10-23T04:31:39;96483.00;;;12.70
33267;BMP180;19638;49.080;11.896;2022-10-23T04:36:12;96476.00;;;12.70
33267;BMP180;19638;49.080;11.896;2022-10-23T04:40:16;96472.00;;;12.70
33267;BMP180;19638;49.080;11.896;2022-10-23T04:44:32;96473.00;;;12.60
33267;BMP180;19638;49.080;11.896;2022-10-23T04:48:37;96486.00;;;12.60
33267;BMP180;19638;49.080;11.896;2022-10-23T04:52:40;96496.00;;;12.60
33267;BMP180;19638;49.080;11.896;2022-10-23T04:56:43;96480.00;;;12.50
33267;BMP180;19638;49.080;11.896;2022-10-23T05:00:47;96489.00;;;12.40
33267;BMP180;19638;49.080;11.896;2022-10-23T05:04:52;96488.00;;;12.40
33267;BMP180;19638;49.080;11.896;2022-10-23T05:08:55;96469.00;;;12.30
33267;BMP180;19638;49.080;11.896;2022-10-23T05:12:58;96456.00;;;12.20
33267;BMP180;19638;49.080;11.896;2022-10-23T05:17:06;96472.00;;;12.20
33267;BMP180;19638;49.080;11.896;2022-10-23T05:21:13;96459.00;;;12.10
33267;BMP180;19638;49.080;11.896;2022-10-23T05:25:18;96459.00;;;12.00
33267;BMP180;19638;49.080;11.896;2022-10-23T05:29:21;96457.00;;;12.00
33267;BMP180;19638;49.080;11.896;2022-10-23T05:33:58;96473.00;;;12.00
33267;BMP180;19638;49.080;11.896;2022-10-23T05:38:04;96460.00;;;12.00
33267;BMP180;19638;49.080;11.896;2022-10-23T05:42:42;96470.00;;;12.00
33267;BMP180;19638;49.080;11.896;2022-10-23T05:46:46;96472.00;;;12.00
33267;BMP180;19638;49.080;11.896;2022-10-23T05:51:22;96474.00;;;12.10
33267;BMP180;19638;49.080;11.896;2022-10-23T05:55:27;96475.00;;;12.10
33267;BMP180;19638;49.080;11.896;2022-10-23T06:00:00;96469.00;;;12.10
33267;BMP180;19638;49.080;11.896;2022-10-23T06:04:37;96475.00;;;12.20
33267;BMP180;19638;49.080;11.896;2022-10-23T06:08:41;96466.00;;;12.30
33267;BMP180;19638;49.080;11.896;2022-10-23T06:13:19;96468.00;;;12.40
33267;BMP180;19638;49.080;11.896;2022-10-23T06:17:22;96464.00;;;12.40
33267;BMP180;19638;49.080;11.896;2022-10-23T06:21:59;96462.00;;;12.50
33267;BMP180;19638;49.080;11.896;2022-10-23T06:26:03;96473.00;;;12.60
33267;BMP180;19638;49.080;11.896;2022-10-23T06:30:39;96464.00;;;12.60
33267;BMP180;19638;49.080;11.896;2022-10-23T06:35:12;96478.00;;;12.70
33267;BMP180;19638;49.080;11.896;2022-10-23T06:39:15;96474.00;;;12.80
33267;BMP180;19638;49.080;11.896;2022-10-23T06:43:52;96468.00;;;12.70
33267;BMP180;19638;49.080;11.896;2022-10-23T06:47:57;96461.00;;;12.70
33267;BMP180;19638;49.080;11.896;2022-10-23T06:52:00;96452.00;;;12.80
33267;BMP180;19638;49.080;11.896;2022-10-23T06:56:04;96450.00;;;12.80
33267;BMP180;19638;49.080;11.896;2022-10-23T07:00:38;96472.00;;;12.90
33267;BMP180;19638;49.080;11.896;2022-10-23T07:05:17;96473.00;;;13.00
33267;BMP180;19638;49.080;11.896;2022-10-23T07:09:21;96473.00;;;13.10
33267;BMP180;19638;49.080;11.896;2022-10-23T07:13:39;96472.00;;;13.40
33267;BMP180;19638;49.080;11.896;2022-10-23T07:26:56;96471.00;;;13.70
33267;BMP180;19638;49.080;11.896;2022-10-23T07:31:30;96480.00;;;13.70
33267;BMP180;19638;49.080;11.896;2022-10-23T07:35:33;96473.00;;;13.90
33267;BMP180;19638;49.080;11.896;2022-10-23T07:40:10;96473.00;;;14.00
33267;BMP180;19638;49.080;11.896;2022-10-23T07:44:15;96474.00;;;14.10
33267;BMP180;19638;49.080;11.896;2022-10-23T07:48:49;96464.00;;;14.10
33267;BMP180;19638;49.080;11.896;2022-10-23T07:52:52;96467.00;;;14.20
33267;BMP180;19638;49.080;11.896;2022-10-23T07:56:55;96469.00;;;14.20
33267;BMP180;19638;49.080;11.896;2022-10-23T08:01:34;96457.00;;;14.30
33267;BMP180;19638;49.080;11.896;2022-10-23T08:05:39;96466.00;;;14.50
33267;BMP180;19638;49.080;11.896;2022-10-23T08:09:42;96451.00;;;14.50
33267;BMP180;19638;49.080;11.896;2022-10-23T08:13:45;96451.00;;;14.70
33267;BMP180;19638;49.080;11.896;2022-10-23T08:17:49;96444.00;;;14.70
33267;BMP180;19638;49.080;11.896;2022-10-23T08:21:52;96439.00;;;14.70
33267;BMP180;19638;49.080;11.896;2022-10-23T08:25:59;96450.00;;;14.80
33267;BMP180;19638;49.080;11.896;2022-10-23T08:30:03;96457.00;;;14.90
33267;BMP180;19638;49.080;11.896;2022-10-23T08:34:08;96464.00;;;15.00
33267;BMP180;19638;49.080;11.896;2022-10-23T08:38:11;96460.00;;;15.00
33267;BMP180;19638;49.080;11.896;2022-10-23T08:42:50;96460.00;;;14.80
33267;BMP180;19638;49.080;11.896;2022-10-23T08:47:24;96468.00;;;14.70
33267;BMP180;19638;49.080;11.896;2022-10-23T08:51:34;96456.00;;;14.80
33267;BMP180;19638;49.080;11.896;2022-10-23T08:55:42;96461.00;;;14.90
33267;BMP180;19638;49.080;11.896;2022-10-23T09:00:12;96455.00;;;14.90
33267;BMP180;19638;49.080;11.896;2022-10-23T09:04:44;96445.00;;;14.80
33267;BMP180;19638;49.080;11.896;2022-10-23T09:08:56;96449.00;;;14.80
33267;BMP180;19638;49.080;11.896;2022-10-23T09:13:11;96439.00;;;15.00
33267;BMP180;19638;49.080;11.896;2022-10-23T09:17:24;96441.00;;;15.10
33267;BMP180;19638;49.080;11.896;2022-10-23T09:21:45;96434.00;;;15.10
33267;BMP180;19638;49.080;11.896;2022-10-23T09:25:52;96446.00;;;15.10
33267;BMP180;19638;49.080;11.896;2022-10-23T09:29:57;96448.00;;;15.20
33267;BMP180;19638;49.080;11.896;2022-10-23T09:34:01;96450.00;;;15.10
33267;BMP180;19638;49.080;11.896;2022-10-23T09:38:46;96445.00;;;14.80
33267;BMP180;19638;49.080;11.896;2022-10-23T09:43:16;96439.00;;;14.70
33267;BMP180;19638;49.080;11.896;2022-10-23T09:47:24;96446.00;;;14.70
33267;BMP180;19638;49.080;11.896;2022-10-23T09:51:29;96434.00;;;14.80
33267;BMP180;19638;49.080;11.896;2022-10-23T09:56:12;96439.00;;;14.80
33267;BMP180;19638;49.080;11.896;2022-10-23T10:00:46;96438.00;;;14.90
33267;BMP180;19638;49.080;11.896;2022-10-23T10:05:20;96434.00;;;15.00
33267;BMP180;19638;49.080;11.896;2022-10-23T10:09:55;96437.00;;;15.20
33267;BMP180;19638;49.080;11.896;2022-10-23T10:14:35;96429.00;;;15.40
33267;BMP180;19638;49.080;11.896;2022-10-23T10:19:12;96427.00;;;15.70
33267;BMP180;19638;49.080;11.896;2022-10-23T10:23:43;96406.00;;;16.00
33267;BMP180;19638;49.080;11.896;2022-10-23T10:32:53;96401.00;;;16.30
33267;BMP180;19638;49.080;11.896;2022-10-23T10:37:33;96398.00;;;16.40
33267;BMP180;19638;49.080;11.896;2022-10-23T10:42:20;96390.00;;;16.30
33267;BMP180;19638;49.080;11.896;2022-10-23T10:51:28;96394.00;;;16.40
33267;BMP180;19638;49.080;11.896;2022-10-23T10:56:04;96383.00;;;16.50
33267;BMP180;19638;49.080;11.896;2022-10-23T11:00:39;96368.00;;;16.60
33267;BMP180;19638;49.080;11.896;2022-10-23T11:05:19;96367.00;;;16.80
33267;BMP180;19638;49.080;11.896;2022-10-23T11:09:51;96371.00;;;16.90
33267;BMP180;19638;49.080;11.896;2022-10-23T11:14:31;96363.00;;;17.00
33267;BMP180;19638;49.080;11.896;2022-10-23T11:19:06;96357.00;;;17.20
33267;BMP180;19638;49.080;11.896;2022-10-23T11:38:18;96345.00;;;17.10
33267;BMP180;19638;49.080;11.896;2022-10-23T11:42:52;96334.00;;;17.30
33267;BMP180;19638;49.080;11.896;2022-10-23T11:47:31;96327.00;;;17.50
33267;BMP180;19638;49.080;11.896;2022-10-23T11:52:19;96301.00;;;17.60
33267;BMP180;19638;49.080;11.896;2022-10-23T11:56:53;96294.00;;;17.80
33267;BMP180;19638;49.080;11.896;2022-10-23T12:01:24;96284.00;;;17.90
33267;BMP180;19638;49.080;11.896;2022-10-23T12:10:34;96271.00;;;17.90
33267;BMP180;19638;49.080;11.896;2022-10-23T12:19:48;96261.00;;;17.90
33267;BMP180;19638;49.080;11.896;2022-10-23T12:24:28;96248.00;;;17.80
33267;BMP180;19638;49.080;11.896;2022-10-23T12:29:01;96260.00;;;17.70
33267;BMP180;19638;49.080;11.896;2022-10-23T12:33:38;96260.00;;;17.80
33267;BMP180;19638;49.080;11.896;2022-10-23T12:42:53;96244.00;;;18.50
33267;BMP180;19638;49.080;11.896;2022-10-23T12:47:25;96247.00;;;18.60
33267;BMP180;19638;49.080;11.896;2022-10-23T12:52:04;96243.00;;;18.60
33267;BMP180;19638;49.080;11.896;2022-10-23T12:56:23;96237.00;;;18.60
33267;BMP180;19638;49.080;11.896;2022-10-23T13:00:59;96210.00;;;18.70
33267;BMP180;19638;49.080;11.896;2022-10-23T13:10:11;96186.00;;;19.00
33267;BMP180;19638;49.080;11.896;2022-10-23T13:19:24;96198.00;;;19.20
33267;BMP180;19638;49.080;11.896;2022-10-23T13:23:58;96189.00;;;19.10
33267;BMP180;19638;49.080;11.896;2022-10-23T13:33:35;96195.00;;;19.00
33267;BMP180;19638;49.080;11.896;2022-10-23T13:38:11;96191.00;;;19.00
33267;BMP180;19638;49.080;11.896;2022-10-23T13:47:25;96178.00;;;19.00
33267;BMP180;19638;49.080;11.896;2022-10-23T13:52:02;96183.00;;;19.00
33267;BMP180;19638;49.080;11.896;2022-10-23T13:56:41;96177.00;;;19.00
33267;BMP180;19638;49.080;11.896;2022-10-23T14:01:15;96177.00;;;19.00
33267;BMP180;19638;49.080;11.896;2022-10-23T14:05:22;96180.00;;;19.10
33267;BMP180;19638;49.080;11.896;2022-10-23T14:09:25;96182.00;;;19.20
33267;BMP180;19638;49.080;11.896;2022-10-23T14:18:40;96182.00;;;19.20
33267;BMP180;19638;49.080;11.896;2022-10-23T14:23:14;96174.00;;;19.10
33267;BMP180;19638;49.080;11.896;2022-10-23T14:32:49;96182.00;;;19.10
33267;BMP180;19638;49.080;11.896;2022-10-23T14:42:06;96169.00;;;19.20
33267;BMP180;19638;49.080;11.896;2022-10-23T14:46:43;96165.00;;;19.20
33267;BMP180;19638;49.080;11.896;2022-10-23T14:51:20;96158.00;;;19.20
33267;BMP180;19638;49.080;11.896;2022-10-23T14:55:59;96162.00;;;19.00
33267;BMP180;19638;49.080;11.896;2022-10-23T15:09:11;96146.00;;;18.60
33267;BMP180;19638;49.080;11.896;2022-10-23T15:13:44;96148.00;;;18.50
33267;BMP180;19638;49.080;11.896;2022-10-23T15:22:58;96135.00;;;18.30
33267;BMP180;19638;49.080;11.896;2022-10-23T15:27:34;96127.00;;;18.20
33267;BMP180;19638;49.080;11.896;2022-10-23T15:31:43;96135.00;;;18.20
33267;BMP180;19638;49.080;11.896;2022-10-23T15:35:46;96136.00;;;18.00
33267;BMP180;19638;49.080;11.896;2022-10-23T15:40:23;96119.00;;;17.90
33267;BMP180;19638;49.080;11.896;2022-10-23T15:45:02;96134.00;;;17.70
33267;BMP180;19638;49.080;11.896;2022-10-23T15:54:11;96116.00;;;17.20
33267;BMP180;19638;49.080;11.896;2022-10-23T15:58:48;96121.00;;;17.00
33267;BMP180;19638;49.080;11.896;2022-10-23T16:08:02;96121.00;;;16.70
33267;BMP180;19638;49.080;11.896;2022-10-23T16:12:40;96110.00;;;16.50
33267;BMP180;19638;49.080;11.896;2022-10-23T16:17:18;96105.00;;;16.40
33267;BMP180;19638;49.080;11.896;2022-10-23T16:21:22;96101.00;;;16.30
33267;BMP180;19638;49.080;11.896;2022-10-23T16:25:28;96104.00;;;16.20
33267;BMP180;19638;49.080;11.896;2022-10-23T16:30:02;96108.00;;;16.20
33267;BMP180;19638;49.080;11.896;2022-10-23T16:34:37;96113.00;;;16.10
33267;BMP180;19638;49.080;11.896;2022-10-23T16:39:12;96113.00;;;16.10
33267;BMP180;19638;49.080;11.896;2022-10-23T16:43:50;96107.00;;;16.10
33267;BMP180;19638;49.080;11.896;2022-10-23T16:47:53;96117.00;;;16.00
33267;BMP180;19638;49.080;11.896;2022-10-23T16:52:30;96115.00;;;16.00
33267;BMP180;19638;49.080;11.896;2022-10-23T16:57:08;96111.00;;;16.00
33267;BMP180;19638;49.080;11.896;2022-10-23T17:06:24;96116.00;;;16.00
33267;BMP180;19638;49.080;11.896;2022-10-23T17:11:02;96120.00;;;16.00
33267;BMP180;19638;49.080;11.896;2022-10-23T17:15:39;96121.00;;;16.00
33267;BMP180;19638;49.080;11.896;2022-10-23T17:29:30;96117.00;;;15.90
33267;BMP180;19638;49.080;11.896;2022-10-23T17:34:05;96101.00;;;15.90
33267;BMP180;19638;49.080;11.896;2022-10-23T17:38:40;96095.00;;;15.90
33267;BMP180;19638;49.080;11.896;2022-10-23T17:42:44;96079.00;;;15.90
33267;BMP180;19638;49.080;11.896;2022-10-23T17:47:22;96088.00;;;15.90
33267;BMP180;19638;49.080;11.896;2022-10-23T17:56:04;96104.00;;;15.90
33267;BMP180;19638;49.080;11.896;2022-10-23T18:00:38;96105.00;;;15.90
33267;BMP180;19638;49.080;11.896;2022-10-23T18:05:16;96112.00;;;15.90
33267;BMP180;19638;49.080;11.896;2022-10-23T18:09:50;96108.00;;;16.00
33267;BMP180;19638;49.080;11.896;2022-10-23T18:14:27;96108.00;;;16.00
33267;BMP180;19638;49.080;11.896;2022-10-23T18:18:33;96096.00;;;16.10
33267;BMP180;19638;49.080;11.896;2022-10-23T18:22:37;96099.00;;;16.10
33267;BMP180;19638;49.080;11.896;2022-10-23T18:27:11;96111.00;;;16.10
33267;BMP180;19638;49.080;11.896;2022-10-23T18:31:15;96144.00;;;16.10
33267;BMP180;19638;49.080;11.896;2022-10-23T18:35:49;96135.00;;;16.10
33267;BMP180;19638;49.080;11.896;2022-10-23T18:40:28;96146.00;;;16.10
33267;BMP180;19638;49.080;11.896;2022-10-23T18:45:02;96137.00;;;16.10
33267;BMP180;19638;49.080;11.896;2022-10-23T18:49:06;96105.00;;;16.10
33267;BMP180;19638;49.080;11.896;2022-10-23T18:57:49;96093.00;;;16.00
33267;BMP180;19638;49.080;11.896;2022-10-23T19:01:52;96059.00;;;16.00
33267;BMP180;19638;49.080;11.896;2022-10-23T19:05:55;96066.00;;;16.10
33267;BMP180;19638;49.080;11.896;2022-10-23T19:09:59;96057.00;;;16.00
33267;BMP180;19638;49.080;11.896;2022-10-23T19:19:12;96046.00;;;16.00
33267;BMP180;19638;49.080;11.896;2022-10-23T19:23:17;96044.00;;;15.90
33267;BMP180;19638;49.080;11.896;2022-10-23T19:31:57;96040.00;;;15.90
33267;BMP180;19638;49.080;11.896;2022-10-23T19:36:02;96033.00;;;15.90
33267;BMP180;19638;49.080;11.896;2022-10-23T19:40:37;96036.00;;;15.80
33267;BMP180;19638;49.080;11.896;2022-10-23T19:45:14;96043.00;;;15.80
33267;BMP180;19638;49.080;11.896;2022-10-23T19:49:17;96066.00;;;15.70
33267;BMP180;19638;49.080;11.896;2022-10-23T19:53:56;96079.00;;;15.70
33267;BMP180;19638;49.080;11.896;2022-10-23T19:58:30;96087.00;;;15.60
33267;BMP180;19638;49.080;11.896;2022-10-23T20:02:36;96097.00;;;15.70
33267;BMP180;19638;49.080;11.896;2022-10-23T20:07:13;96090.00;;;15.70
33267;BMP180;19638;49.080;11.896;2022-10-23T20:15:54;96112.00;;;15.70
33267;BMP180;19638;49.080;11.896;2022-10-23T20:19:57;96109.00;;;15.80
33267;BMP180;19638;49.080;11.896;2022-10-23T20:24:01;96123.00;;;15.80
33267;BMP180;19638;49.080;11.896;2022-10-23T20:28:35;96129.00;;;15.90
33267;BMP180;19638;49.080;11.896;2022-10-23T20:32:39;96141.00;;;15.80
33267;BMP180;19638;49.080;11.896;2022-10-23T20:36:44;96136.00;;;15.80
33267;BMP180;19638;49.080;11.896;2022-10-23T20:41:20;96142.00;;;15.80
33267;BMP180;19638;49.080;11.896;2022-10-23T20:45:25;96143.00;;;15.90
33267;BMP180;19638;49.080;11.896;2022-10-23T20:50:04;96156.00;;;15.90
33267;BMP180;19638;49.080;11.896;2022-10-23T20:54:07;96151.00;;;15.90
33267;BMP180;19638;49.080;11.896;2022-10-23T21:07:25;96148.00;;;15.90
33267;BMP180;19638;49.080;11.896;2022-10-23T21:16:10;96180.00;;;15.80
33267;BMP180;19638;49.080;11.896;2022-10-23T21:20:14;96169.00;;;15.70
33267;BMP180;19638;49.080;11.896;2022-10-23T21:24:19;96177.00;;;15.70
33267;BMP180;19638;49.080;11.896;2022-10-23T21:28:22;96181.00;;;15.60
33267;BMP180;19638;49.080;11.896;2022-10-23T21:32:25;96167.00;;;15.60
33267;BMP180;19638;49.080;11.896;2022-10-23T21:36:28;96167.00;;;15.60
33267;BMP180;19638;49.080;11.896;2022-10-23T21:40:41;96173.00;;;15.60
33267;BMP180;19638;49.080;11.896;2022-10-23T21:44:44;96197.00;;;15.60
33267;BMP180;19638;49.080;11.896;2022-10-23T21:49:21;96194.00;;;15.60
33267;BMP180;19638;49.080;11.896;2022-10-23T21:53:24;96207.00;;;15.60
33267;BMP180;19638;49.080;11.896;2022-10-23T21:58:00;96228.00;;;15.60
33267;BMP180;19638;49.080;11.896;2022-10-23T22:02:03;96244.00;;;15.50
33267;BMP180;19638;49.080;11.896;2022-10-23T22:06:08;96238.00;;;15.50
33267;BMP180;19638;49.080;11.896;2022-10-23T22:10:11;96237.00;;;15.50
33267;BMP180;19638;49.080;11.896;2022-10-23T22:14:16;96222.00;;;15.60
33267;BMP180;19638;49.080;11.896;2022-10-23T22:18:19;96218.00;;;15.60
33267;BMP180;19638;49.080;11.896;2022-10-23T22:22:56;96228.00;;;15.60
33267;BMP180;19638;49.080;11.896;2022-10-23T22:26:59;96229.00;;;15.60
33267;BMP180;19638;49.080;11.896;2022-10-23T22:31:04;96228.00;;;15.50
33267;BMP180;19638;49.080;11.896;2022-10-23T22:35:07;96240.00;;;15.30
33267;BMP180;19638;49.080;11.896;2022-10-23T22:39:10;96245.00;;;15.20
33267;BMP180;19638;49.080;11.896;2022-10-23T22:43:13;96247.00;;;15.10
33267;BMP180;19638;49.080;11.896;2022-10-23T22:47:51;96245.00;;;14.90
33267;BMP180;19638;49.080;11.896;2022-10-23T22:51:54;96253.00;;;14.90
33267;BMP180;19638;49.080;11.896;2022-10-23T22:55:58;96267.00;;;14.90
33267;BMP180;19638;49.080;11.896;2022-10-23T23:00:01;96270.00;;;14.90
33267;BMP180;19638;49.080;11.896;2022-10-23T23:04:06;96268.00;;;14.90
33267;BMP180;19638;49.080;11.896;2022-10-23T23:08:41;96284.00;;;14.80
33267;BMP180;19638;49.080;11.896;2022-10-23T23:12:45;96294.00;;;14.90
33267;BMP180;19638;49.080;11.896;2022-10-23T23:16:48;96304.00;;;15.00
33267;BMP180;19638;49.080;11.896;2022-10-23T23:20:52;96302.00;;;15.10
33267;BMP180;19638;49.080;11.896;2022-10-23T23:25:26;96319.00;;;15.20
33267;BMP180;19638;49.080;11.896;2022-10-23T23:29:29;96308.00;;;15.20
33267;BMP180;19638;49.080;11.896;2022-10-23T23:33:33;96310.00;;;15.40
33267;BMP180;19638;49.080;11.896;2022-10-23T23:38:08;96301.00;;;15.50
33267;BMP180;19638;49.080;11.896;2022-10-23T23:42:12;96317.00;;;15.50
33267;BMP180;19638;49.080;11.896;2022-10-23T23:46:18;96299.00;;;15.60
33267;BMP180;19638;49.080;11.896;2022-10-23T23:50:21;96312.00;;;15.60
33267;BMP180;19638;49.080;11.896;2022-10-23T23:54:59;96323.00;;;15.70
33267;BMP180;19638;49.080;11.896;2022-10-23T23:59:07;96343.00;;;15.70
